Barberville, Florida
Current Conditions -  °F | °C
As of 9:53 PM on Saturday 24 Jan 2015 (Local Time) from KDAB Reporting Station
Few Clouds Few Clouds  
Wind Chill: 50°   Ceiling: Unl
Heat Index: 50°   Visibility: 10mi
Dew Point: 45°   Wind: 7mph
Humidity: 83%   Direction: 280°W
Pressure: 30.02"   Gusts: NA
Location:  29.19°N, 81.42°W
Report Text: KDAB 250253Z 28006KT 10SM FEW250 10/07 A3002 RMK AO2 SLP165 T01000072 51025
Loading
Personal Weather Stations






























Interactive Weather Map New forecast layout! Learn more

10-Day Weather Forecast

Advertisements
Track Severe Weather on mobile